sensor_id;sensor_type;location;lat;lon;timestamp;P1;durP1;ratioP1;P2;durP2;ratioP2
20468;SDS011;10393;52.460;13.322;2023-06-24T00:00:58;13.93;;;8.15;;
20468;SDS011;10393;52.460;13.322;2023-06-24T00:02:39;13.85;;;8.20;;
20468;SDS011;10393;52.460;13.322;2023-06-24T00:04:23;17.73;;;9.20;;
20468;SDS011;10393;52.460;13.322;2023-06-24T00:06:05;20.77;;;8.77;;
20468;SDS011;10393;52.460;13.322;2023-06-24T00:07:46;14.73;;;9.32;;
20468;SDS011;10393;52.460;13.322;2023-06-24T00:09:28;14.40;;;8.93;;
20468;SDS011;10393;52.460;13.322;2023-06-24T00:11:10;15.02;;;8.43;;
20468;SDS011;10393;52.460;13.322;2023-06-24T00:12:51;15.25;;;8.65;;
20468;SDS011;10393;52.460;13.322;2023-06-24T00:14:32;16.08;;;9.75;;
20468;SDS011;10393;52.460;13.322;2023-06-24T00:16:14;19.42;;;9.60;;
20468;SDS011;10393;52.460;13.322;2023-06-24T00:17:55;23.73;;;9.88;;
20468;SDS011;10393;52.460;13.322;2023-06-24T00:19:45;16.35;;;8.93;;
20468;SDS011;10393;52.460;13.322;2023-06-24T00:21:27;15.43;;;9.63;;
20468;SDS011;10393;52.460;13.322;2023-06-24T00:23:12;17.35;;;9.75;;
20468;SDS011;10393;52.460;13.322;2023-06-24T00:24:54;20.75;;;10.25;;
20468;SDS011;10393;52.460;13.322;2023-06-24T00:26:36;16.02;;;10.50;;
20468;SDS011;10393;52.460;13.322;2023-06-24T00:28:18;16.38;;;9.68;;
20468;SDS011;10393;52.460;13.322;2023-06-24T00:29:59;16.05;;;9.63;;
20468;SDS011;10393;52.460;13.322;2023-06-24T00:31:40;14.55;;;9.88;;
20468;SDS011;10393;52.460;13.322;2023-06-24T00:33:21;16.20;;;10.13;;
20468;SDS011;10393;52.460;13.322;2023-06-24T00:35:02;16.80;;;9.52;;
20468;SDS011;10393;52.460;13.322;2023-06-24T00:36:43;14.35;;;8.80;;
20468;SDS011;10393;52.460;13.322;2023-06-24T00:38:26;16.58;;;9.27;;
20468;SDS011;10393;52.460;13.322;2023-06-24T00:40:12;16.55;;;9.82;;
20468;SDS011;10393;52.460;13.322;2023-06-24T00:41:56;16.52;;;9.50;;
20468;SDS011;10393;52.460;13.322;2023-06-24T00:43:37;16.60;;;9.48;;
20468;SDS011;10393;52.460;13.322;2023-06-24T00:45:19;13.57;;;8.82;;
20468;SDS011;10393;52.460;13.322;2023-06-24T00:47:01;18.20;;;9.75;;
20468;SDS011;10393;52.460;13.322;2023-06-24T00:48:42;23.38;;;9.98;;
20468;SDS011;10393;52.460;13.322;2023-06-24T00:50:23;16.77;;;10.30;;
20468;SDS011;10393;52.460;13.322;2023-06-24T00:52:07;17.58;;;9.90;;
20468;SDS011;10393;52.460;13.322;2023-06-24T00:53:52;12.27;;;8.50;;
20468;SDS011;10393;52.460;13.322;2023-06-24T00:55:33;16.90;;;8.80;;
20468;SDS011;10393;52.460;13.322;2023-06-24T00:57:15;18.55;;;10.60;;
20468;SDS011;10393;52.460;13.322;2023-06-24T00:58:57;13.82;;;9.45;;
20468;SDS011;10393;52.460;13.322;2023-06-24T01:00:44;15.40;;;9.52;;
20468;SDS011;10393;52.460;13.322;2023-06-24T01:02:26;15.73;;;9.25;;
20468;SDS011;10393;52.460;13.322;2023-06-24T01:04:08;16.13;;;9.43;;
20468;SDS011;10393;52.460;13.322;2023-06-24T01:05:49;13.98;;;9.77;;
20468;SDS011;10393;52.460;13.322;2023-06-24T01:07:30;17.63;;;11.07;;
20468;SDS011;10393;52.460;13.322;2023-06-24T01:09:12;17.73;;;10.23;;
20468;SDS011;10393;52.460;13.322;2023-06-24T01:10:53;15.30;;;9.68;;
20468;SDS011;10393;52.460;13.322;2023-06-24T01:12:35;17.02;;;9.50;;
20468;SDS011;10393;52.460;13.322;2023-06-24T01:14:16;22.40;;;10.20;;
20468;SDS011;10393;52.460;13.322;2023-06-24T01:16:00;18.40;;;9.88;;
20468;SDS011;10393;52.460;13.322;2023-06-24T01:18:00;12.65;;;9.13;;
20468;SDS011;10393;52.460;13.322;2023-06-24T01:19:53;15.85;;;9.82;;
20468;SDS011;10393;52.460;13.322;2023-06-24T01:23:27;14.90;;;10.10;;
20468;SDS011;10393;52.460;13.322;2023-06-24T01:27:10;16.65;;;9.77;;
20468;SDS011;10393;52.460;13.322;2023-06-24T01:32:44;16.45;;;8.50;;
20468;SDS011;10393;52.460;13.322;2023-06-24T01:36:13;16.30;;;9.90;;
20468;SDS011;10393;52.460;13.322;2023-06-24T01:37:55;15.63;;;9.13;;
20468;SDS011;10393;52.460;13.322;2023-06-24T01:39:42;17.13;;;9.40;;
20468;SDS011;10393;52.460;13.322;2023-06-24T01:41:26;14.73;;;9.05;;
20468;SDS011;10393;52.460;13.322;2023-06-24T01:43:12;17.42;;;9.95;;
20468;SDS011;10393;52.460;13.322;2023-06-24T01:44:54;14.50;;;8.32;;
20468;SDS011;10393;52.460;13.322;2023-06-24T01:46:36;12.35;;;8.65;;
20468;SDS011;10393;52.460;13.322;2023-06-24T01:48:19;14.48;;;9.52;;
20468;SDS011;10393;52.460;13.322;2023-06-24T01:50:02;17.23;;;9.75;;
20468;SDS011;10393;52.460;13.322;2023-06-24T01:51:44;18.65;;;9.82;;
20468;SDS011;10393;52.460;13.322;2023-06-24T01:53:31;14.43;;;8.88;;
20468;SDS011;10393;52.460;13.322;2023-06-24T01:55:15;15.93;;;9.45;;
20468;SDS011;10393;52.460;13.322;2023-06-24T01:56:57;17.15;;;9.40;;
20468;SDS011;10393;52.460;13.322;2023-06-24T01:58:40;13.75;;;8.73;;
20468;SDS011;10393;52.460;13.322;2023-06-24T02:00:22;15.05;;;9.43;;
20468;SDS011;10393;52.460;13.322;2023-06-24T02:02:04;13.95;;;8.60;;
20468;SDS011;10393;52.460;13.322;2023-06-24T02:03:46;13.10;;;9.30;;
20468;SDS011;10393;52.460;13.322;2023-06-24T02:05:28;15.00;;;7.97;;
20468;SDS011;10393;52.460;13.322;2023-06-24T02:07:09;20.13;;;9.95;;
20468;SDS011;10393;52.460;13.322;2023-06-24T02:08:52;12.60;;;8.93;;
20468;SDS011;10393;52.460;13.322;2023-06-24T02:10:34;13.10;;;8.48;;
20468;SDS011;10393;52.460;13.322;2023-06-24T02:12:17;17.50;;;7.75;;
20468;SDS011;10393;52.460;13.322;2023-06-24T02:14:01;13.45;;;8.55;;
20468;SDS011;10393;52.460;13.322;2023-06-24T02:15:42;11.50;;;8.13;;
20468;SDS011;10393;52.460;13.322;2023-06-24T02:17:24;12.90;;;9.15;;
20468;SDS011;10393;52.460;13.322;2023-06-24T02:19:09;10.55;;;7.30;;
20468;SDS011;10393;52.460;13.322;2023-06-24T02:20:51;11.98;;;7.43;;
20468;SDS011;10393;52.460;13.322;2023-06-24T02:22:32;10.60;;;6.80;;
20468;SDS011;10393;52.460;13.322;2023-06-24T02:24:14;10.50;;;6.32;;
20468;SDS011;10393;52.460;13.322;2023-06-24T02:25:55;10.73;;;7.03;;
20468;SDS011;10393;52.460;13.322;2023-06-24T02:27:37;13.20;;;7.10;;
20468;SDS011;10393;52.460;13.322;2023-06-24T02:29:18;13.23;;;7.53;;
20468;SDS011;10393;52.460;13.322;2023-06-24T02:31:00;10.98;;;6.90;;
20468;SDS011;10393;52.460;13.322;2023-06-24T02:32:41;9.38;;;6.68;;
20468;SDS011;10393;52.460;13.322;2023-06-24T02:34:23;10.88;;;5.80;;
20468;SDS011;10393;52.460;13.322;2023-06-24T02:36:05;8.02;;;6.03;;
20468;SDS011;10393;52.460;13.322;2023-06-24T02:37:46;10.07;;;6.20;;
20468;SDS011;10393;52.460;13.322;2023-06-24T02:39:30;9.95;;;6.90;;
20468;SDS011;10393;52.460;13.322;2023-06-24T02:41:11;9.77;;;5.90;;
20468;SDS011;10393;52.460;13.322;2023-06-24T02:42:52;14.32;;;7.03;;
20468;SDS011;10393;52.460;13.322;2023-06-24T02:44:33;8.68;;;5.93;;
20468;SDS011;10393;52.460;13.322;2023-06-24T02:46:15;9.27;;;5.82;;
20468;SDS011;10393;52.460;13.322;2023-06-24T02:47:56;10.07;;;5.88;;
20468;SDS011;10393;52.460;13.322;2023-06-24T02:49:38;7.57;;;4.90;;
20468;SDS011;10393;52.460;13.322;2023-06-24T02:51:19;10.13;;;6.03;;
20468;SDS011;10393;52.460;13.322;2023-06-24T02:53:01;7.20;;;5.25;;
20468;SDS011;10393;52.460;13.322;2023-06-24T02:54:46;7.82;;;5.68;;
20468;SDS011;10393;52.460;13.322;2023-06-24T02:56:46;11.40;;;5.05;;
20468;SDS011;10393;52.460;13.322;2023-06-24T02:58:36;7.25;;;5.45;;
20468;SDS011;10393;52.460;13.322;2023-06-24T03:00:26;8.80;;;5.35;;
20468;SDS011;10393;52.460;13.322;2023-06-24T03:02:30;7.80;;;5.38;;
20468;SDS011;10393;52.460;13.322;2023-06-24T03:04:11;15.60;;;5.82;;
20468;SDS011;10393;52.460;13.322;2023-06-24T03:05:53;10.98;;;6.57;;
20468;SDS011;10393;52.460;13.322;2023-06-24T03:07:35;10.85;;;5.90;;
20468;SDS011;10393;52.460;13.322;2023-06-24T03:09:17;14.82;;;5.82;;
20468;SDS011;10393;52.460;13.322;2023-06-24T03:11:01;12.95;;;5.20;;
20468;SDS011;10393;52.460;13.322;2023-06-24T03:12:44;7.30;;;4.95;;
20468;SDS011;10393;52.460;13.322;2023-06-24T03:14:26;10.00;;;5.53;;
20468;SDS011;10393;52.460;13.322;2023-06-24T03:16:07;6.70;;;5.13;;
20468;SDS011;10393;52.460;13.322;2023-06-24T03:17:56;7.07;;;5.25;;
20468;SDS011;10393;52.460;13.322;2023-06-24T03:19:39;12.15;;;5.72;;
20468;SDS011;10393;52.460;13.322;2023-06-24T03:21:20;9.82;;;4.72;;
20468;SDS011;10393;52.460;13.322;2023-06-24T03:23:12;7.15;;;4.85;;
20468;SDS011;10393;52.460;13.322;2023-06-24T03:24:53;8.80;;;5.72;;
20468;SDS011;10393;52.460;13.322;2023-06-24T03:26:37;8.05;;;5.18;;
20468;SDS011;10393;52.460;13.322;2023-06-24T03:28:21;12.18;;;5.20;;
20468;SDS011;10393;52.460;13.322;2023-06-24T03:30:10;7.22;;;4.57;;
20468;SDS011;10393;52.460;13.322;2023-06-24T03:31:54;9.48;;;5.60;;
20468;SDS011;10393;52.460;13.322;2023-06-24T03:33:39;14.57;;;5.78;;
20468;SDS011;10393;52.460;13.322;2023-06-24T03:35:24;9.55;;;5.03;;
20468;SDS011;10393;52.460;13.322;2023-06-24T03:37:08;13.90;;;5.65;;
20468;SDS011;10393;52.460;13.322;2023-06-24T03:38:52;10.25;;;5.00;;
20468;SDS011;10393;52.460;13.322;2023-06-24T03:40:34;12.25;;;5.15;;
20468;SDS011;10393;52.460;13.322;2023-06-24T03:42:15;7.70;;;5.18;;
20468;SDS011;10393;52.460;13.322;2023-06-24T03:43:57;10.40;;;5.72;;
20468;SDS011;10393;52.460;13.322;2023-06-24T03:45:38;10.40;;;5.15;;
20468;SDS011;10393;52.460;13.322;2023-06-24T03:47:20;8.80;;;5.05;;
20468;SDS011;10393;52.460;13.322;2023-06-24T03:49:01;5.80;;;4.82;;
20468;SDS011;10393;52.460;13.322;2023-06-24T03:50:43;14.23;;;5.47;;
20468;SDS011;10393;52.460;13.322;2023-06-24T03:52:24;9.10;;;5.18;;
20468;SDS011;10393;52.460;13.322;2023-06-24T03:54:06;8.77;;;5.50;;
20468;SDS011;10393;52.460;13.322;2023-06-24T03:55:47;6.00;;;4.13;;
20468;SDS011;10393;52.460;13.322;2023-06-24T03:57:29;6.35;;;4.55;;
20468;SDS011;10393;52.460;13.322;2023-06-24T03:59:10;8.48;;;4.60;;
20468;SDS011;10393;52.460;13.322;2023-06-24T04:00:52;6.38;;;5.05;;
20468;SDS011;10393;52.460;13.322;2023-06-24T04:02:36;10.30;;;5.25;;
20468;SDS011;10393;52.460;13.322;2023-06-24T04:04:17;11.73;;;5.18;;
20468;SDS011;10393;52.460;13.322;2023-06-24T04:05:59;9.55;;;5.35;;
20468;SDS011;10393;52.460;13.322;2023-06-24T04:07:42;7.80;;;4.85;;
20468;SDS011;10393;52.460;13.322;2023-06-24T04:09:28;8.85;;;4.72;;
20468;SDS011;10393;52.460;13.322;2023-06-24T04:11:10;9.05;;;5.32;;
20468;SDS011;10393;52.460;13.322;2023-06-24T04:12:52;6.50;;;4.90;;
20468;SDS011;10393;52.460;13.322;2023-06-24T04:14:33;7.00;;;4.65;;
20468;SDS011;10393;52.460;13.322;2023-06-24T04:16:14;12.77;;;5.00;;
20468;SDS011;10393;52.460;13.322;2023-06-24T04:17:56;9.77;;;5.78;;
20468;SDS011;10393;52.460;13.322;2023-06-24T04:19:37;7.97;;;5.55;;
20468;SDS011;10393;52.460;13.322;2023-06-24T04:21:19;8.80;;;5.30;;
20468;SDS011;10393;52.460;13.322;2023-06-24T04:23:01;11.02;;;5.18;;
20468;SDS011;10393;52.460;13.322;2023-06-24T04:24:43;9.65;;;4.85;;
20468;SDS011;10393;52.460;13.322;2023-06-24T04:26:25;8.32;;;5.55;;
20468;SDS011;10393;52.460;13.322;2023-06-24T04:28:06;8.93;;;4.72;;
20468;SDS011;10393;52.460;13.322;2023-06-24T04:29:48;6.40;;;4.70;;
20468;SDS011;10393;52.460;13.322;2023-06-24T04:31:29;8.95;;;5.60;;
20468;SDS011;10393;52.460;13.322;2023-06-24T04:33:11;7.85;;;4.95;;
20468;SDS011;10393;52.460;13.322;2023-06-24T04:34:53;5.68;;;4.63;;
20468;SDS011;10393;52.460;13.322;2023-06-24T04:36:34;4.90;;;3.80;;
20468;SDS011;10393;52.460;13.322;2023-06-24T04:38:16;7.03;;;4.97;;
20468;SDS011;10393;52.460;13.322;2023-06-24T04:40:00;6.45;;;4.32;;
20468;SDS011;10393;52.460;13.322;2023-06-24T04:41:41;10.20;;;4.57;;
20468;SDS011;10393;52.460;13.322;2023-06-24T04:43:22;6.28;;;4.85;;
20468;SDS011;10393;52.460;13.322;2023-06-24T04:45:03;10.07;;;5.13;;
20468;SDS011;10393;52.460;13.322;2023-06-24T04:46:45;6.90;;;4.88;;
20468;SDS011;10393;52.460;13.322;2023-06-24T04:48:26;7.75;;;4.65;;
20468;SDS011;10393;52.460;13.322;2023-06-24T04:50:08;12.20;;;4.80;;
20468;SDS011;10393;52.460;13.322;2023-06-24T04:51:52;8.15;;;5.15;;
20468;SDS011;10393;52.460;13.322;2023-06-24T04:53:33;7.68;;;4.75;;
20468;SDS011;10393;52.460;13.322;2023-06-24T04:55:15;6.03;;;4.72;;
20468;SDS011;10393;52.460;13.322;2023-06-24T04:56:56;6.10;;;4.72;;
20468;SDS011;10393;52.460;13.322;2023-06-24T04:58:37;6.47;;;5.00;;
20468;SDS011;10393;52.460;13.322;2023-06-24T05:00:18;7.10;;;4.63;;
20468;SDS011;10393;52.460;13.322;2023-06-24T05:02:03;8.50;;;5.30;;
20468;SDS011;10393;52.460;13.322;2023-06-24T05:03:47;10.70;;;5.18;;
20468;SDS011;10393;52.460;13.322;2023-06-24T05:05:28;10.20;;;5.43;;
20468;SDS011;10393;52.460;13.322;2023-06-24T05:07:10;7.63;;;4.75;;
20468;SDS011;10393;52.460;13.322;2023-06-24T05:08:51;7.03;;;4.95;;
20468;SDS011;10393;52.460;13.322;2023-06-24T05:10:32;7.53;;;4.95;;
20468;SDS011;10393;52.460;13.322;2023-06-24T05:12:14;7.93;;;5.57;;
20468;SDS011;10393;52.460;13.322;2023-06-24T05:13:55;9.02;;;4.82;;
20468;SDS011;10393;52.460;13.322;2023-06-24T05:15:38;7.93;;;4.80;;
20468;SDS011;10393;52.460;13.322;2023-06-24T05:17:19;6.53;;;4.20;;
20468;SDS011;10393;52.460;13.322;2023-06-24T05:19:00;11.40;;;6.57;;
20468;SDS011;10393;52.460;13.322;2023-06-24T05:20:41;10.88;;;4.72;;
20468;SDS011;10393;52.460;13.322;2023-06-24T05:22:23;8.15;;;5.47;;
20468;SDS011;10393;52.460;13.322;2023-06-24T05:24:04;6.13;;;5.07;;
20468;SDS011;10393;52.460;13.322;2023-06-24T05:25:45;6.60;;;5.10;;
20468;SDS011;10393;52.460;13.322;2023-06-24T05:27:26;8.38;;;5.65;;
20468;SDS011;10393;52.460;13.322;2023-06-24T05:29:08;5.78;;;5.18;;
20468;SDS011;10393;52.460;13.322;2023-06-24T05:30:50;8.45;;;5.38;;
20468;SDS011;10393;52.460;13.322;2023-06-24T05:32:31;6.43;;;5.25;;
20468;SDS011;10393;52.460;13.322;2023-06-24T05:34:12;11.70;;;5.22;;
20468;SDS011;10393;52.460;13.322;2023-06-24T05:35:53;10.27;;;4.55;;
20468;SDS011;10393;52.460;13.322;2023-06-24T05:37:35;6.78;;;5.00;;
20468;SDS011;10393;52.460;13.322;2023-06-24T05:39:16;7.18;;;4.05;;
20468;SDS011;10393;52.460;13.322;2023-06-24T05:40:58;5.57;;;4.22;;
20468;SDS011;10393;52.460;13.322;2023-06-24T05:42:39;7.53;;;4.70;;
20468;SDS011;10393;52.460;13.322;2023-06-24T05:44:20;6.78;;;4.18;;
20468;SDS011;10393;52.460;13.322;2023-06-24T05:46:02;6.07;;;4.80;;
20468;SDS011;10393;52.460;13.322;2023-06-24T05:47:44;11.52;;;4.65;;
20468;SDS011;10393;52.460;13.322;2023-06-24T05:49:26;7.10;;;4.18;;
20468;SDS011;10393;52.460;13.322;2023-06-24T05:51:07;5.85;;;4.30;;
20468;SDS011;10393;52.460;13.322;2023-06-24T05:52:49;9.35;;;4.28;;
20468;SDS011;10393;52.460;13.322;2023-06-24T05:54:30;6.00;;;4.05;;
20468;SDS011;10393;52.460;13.322;2023-06-24T05:56:11;7.85;;;4.15;;
20468;SDS011;10393;52.460;13.322;2023-06-24T05:57:52;5.82;;;4.55;;
20468;SDS011;10393;52.460;13.322;2023-06-24T05:59:34;9.93;;;4.93;;
20468;SDS011;10393;52.460;13.322;2023-06-24T06:01:15;6.72;;;4.47;;
20468;SDS011;10393;52.460;13.322;2023-06-24T06:02:56;4.75;;;4.13;;
20468;SDS011;10393;52.460;13.322;2023-06-24T06:04:38;7.90;;;5.15;;
20468;SDS011;10393;52.460;13.322;2023-06-24T06:06:19;9.77;;;5.53;;
20468;SDS011;10393;52.460;13.322;2023-06-24T06:08:00;5.75;;;4.07;;
20468;SDS011;10393;52.460;13.322;2023-06-24T06:09:42;6.32;;;4.53;;
20468;SDS011;10393;52.460;13.322;2023-06-24T06:11:23;4.88;;;4.40;;
20468;SDS011;10393;52.460;13.322;2023-06-24T06:13:04;4.75;;;4.32;;
20468;SDS011;10393;52.460;13.322;2023-06-24T06:14:45;5.05;;;4.57;;
20468;SDS011;10393;52.460;13.322;2023-06-24T06:16:32;5.90;;;4.03;;
20468;SDS011;10393;52.460;13.322;2023-06-24T06:18:17;5.57;;;4.18;;
20468;SDS011;10393;52.460;13.322;2023-06-24T06:19:58;4.50;;;3.70;;
20468;SDS011;10393;52.460;13.322;2023-06-24T06:21:39;6.50;;;4.75;;
20468;SDS011;10393;52.460;13.322;2023-06-24T06:23:20;4.93;;;4.53;;
20468;SDS011;10393;52.460;13.322;2023-06-24T06:25:01;4.57;;;4.18;;
20468;SDS011;10393;52.460;13.322;2023-06-24T06:26:43;4.68;;;4.28;;
20468;SDS011;10393;52.460;13.322;2023-06-24T06:28:24;5.95;;;5.40;;
20468;SDS011;10393;52.460;13.322;2023-06-24T06:30:06;4.82;;;4.15;;
20468;SDS011;10393;52.460;13.322;2023-06-24T06:31:47;5.35;;;4.45;;
20468;SDS011;10393;52.460;13.322;2023-06-24T06:33:28;3.47;;;3.08;;
20468;SDS011;10393;52.460;13.322;2023-06-24T06:35:09;4.03;;;3.63;;
20468;SDS011;10393;52.460;13.322;2023-06-24T06:36:50;4.50;;;4.10;;
20468;SDS011;10393;52.460;13.322;2023-06-24T06:38:32;3.72;;;3.53;;
20468;SDS011;10393;52.460;13.322;2023-06-24T06:40:13;4.97;;;4.15;;
20468;SDS011;10393;52.460;13.322;2023-06-24T06:41:54;3.92;;;3.63;;
20468;SDS011;10393;52.460;13.322;2023-06-24T06:43:38;3.58;;;3.47;;
20468;SDS011;10393;52.460;13.322;2023-06-24T06:45:19;4.05;;;3.85;;
20468;SDS011;10393;52.460;13.322;2023-06-24T06:47:00;3.75;;;3.53;;
20468;SDS011;10393;52.460;13.322;2023-06-24T06:48:41;3.80;;;3.60;;
20468;SDS011;10393;52.460;13.322;2023-06-24T06:50:22;3.53;;;3.25;;
20468;SDS011;10393;52.460;13.322;2023-06-24T06:52:05;4.60;;;4.38;;
20468;SDS011;10393;52.460;13.322;2023-06-24T06:53:46;4.70;;;3.30;;
20468;SDS011;10393;52.460;13.322;2023-06-24T06:55:27;3.08;;;2.88;;
20468;SDS011;10393;52.460;13.322;2023-06-24T06:57:08;3.50;;;3.20;;
20468;SDS011;10393;52.460;13.322;2023-06-24T06:58:50;4.10;;;3.15;;
20468;SDS011;10393;52.460;13.322;2023-06-24T07:00:31;3.55;;;3.35;;
20468;SDS011;10393;52.460;13.322;2023-06-24T07:02:12;3.13;;;2.92;;
20468;SDS011;10393;52.460;13.322;2023-06-24T07:03:53;3.72;;;3.53;;
20468;SDS011;10393;52.460;13.322;2023-06-24T07:05:34;2.92;;;2.83;;
20468;SDS011;10393;52.460;13.322;2023-06-24T07:07:16;4.60;;;4.30;;
20468;SDS011;10393;52.460;13.322;2023-06-24T07:08:57;3.30;;;3.10;;
20468;SDS011;10393;52.460;13.322;2023-06-24T07:10:38;2.97;;;2.78;;
20468;SDS011;10393;52.460;13.322;2023-06-24T07:12:19;4.75;;;3.15;;
20468;SDS011;10393;52.460;13.322;2023-06-24T07:14:02;3.45;;;3.22;;
20468;SDS011;10393;52.460;13.322;2023-06-24T07:15:43;4.05;;;2.95;;
20468;SDS011;10393;52.460;13.322;2023-06-24T07:17:24;4.30;;;2.70;;
20468;SDS011;10393;52.460;13.322;2023-06-24T07:19:05;3.83;;;3.13;;
20468;SDS011;10393;52.460;13.322;2023-06-24T07:20:46;3.28;;;3.08;;
20468;SDS011;10393;52.460;13.322;2023-06-24T07:22:29;3.38;;;3.10;;
20468;SDS011;10393;52.460;13.322;2023-06-24T07:24:10;16.20;;;3.42;;
20468;SDS011;10393;52.460;13.322;2023-06-24T07:25:51;3.45;;;3.00;;
20468;SDS011;10393;52.460;13.322;2023-06-24T07:27:33;3.17;;;3.08;;
20468;SDS011;10393;52.460;13.322;2023-06-24T07:29:14;3.35;;;2.90;;
20468;SDS011;10393;52.460;13.322;2023-06-24T07:30:55;3.00;;;2.42;;
20468;SDS011;10393;52.460;13.322;2023-06-24T07:32:36;3.05;;;2.65;;
20468;SDS011;10393;52.460;13.322;2023-06-24T07:34:17;3.80;;;3.13;;
20468;SDS011;10393;52.460;13.322;2023-06-24T07:35:59;3.63;;;2.53;;
20468;SDS011;10393;52.460;13.322;2023-06-24T07:37:40;3.58;;;3.35;;
20468;SDS011;10393;52.460;13.322;2023-06-24T07:39:21;2.90;;;2.72;;
20468;SDS011;10393;52.460;13.322;2023-06-24T07:41:02;3.10;;;2.85;;
20468;SDS011;10393;52.460;13.322;2023-06-24T07:42:43;3.17;;;2.97;;
20468;SDS011;10393;52.460;13.322;2023-06-24T07:44:24;3.88;;;3.47;;
20468;SDS011;10393;52.460;13.322;2023-06-24T07:46:05;3.42;;;3.20;;
20468;SDS011;10393;52.460;13.322;2023-06-24T07:47:47;3.08;;;2.88;;
20468;SDS011;10393;52.460;13.322;2023-06-24T07:49:28;3.17;;;3.08;;
20468;SDS011;10393;52.460;13.322;2023-06-24T07:51:09;4.28;;;3.97;;
20468;SDS011;10393;52.460;13.322;2023-06-24T07:52:50;2.97;;;2.88;;
20468;SDS011;10393;52.460;13.322;2023-06-24T07:54:32;2.53;;;2.42;;
20468;SDS011;10393;52.460;13.322;2023-06-24T07:56:13;5.97;;;2.38;;
20468;SDS011;10393;52.460;13.322;2023-06-24T07:57:54;4.07;;;2.75;;
20468;SDS011;10393;52.460;13.322;2023-06-24T07:59:35;2.47;;;2.38;;
20468;SDS011;10393;52.460;13.322;2023-06-24T08:01:16;2.30;;;2.20;;
20468;SDS011;10393;52.460;13.322;2023-06-24T08:02:57;8.75;;;3.67;;
20468;SDS011;10393;52.460;13.322;2023-06-24T08:04:39;3.13;;;2.78;;
20468;SDS011;10393;52.460;13.322;2023-06-24T08:06:20;2.60;;;2.40;;
20468;SDS011;10393;52.460;13.322;2023-06-24T08:08:01;5.10;;;2.78;;
20468;SDS011;10393;52.460;13.322;2023-06-24T08:09:42;4.80;;;3.85;;
20468;SDS011;10393;52.460;13.322;2023-06-24T08:11:23;3.55;;;3.30;;
20468;SDS011;10393;52.460;13.322;2023-06-24T08:13:05;3.13;;;3.03;;
20468;SDS011;10393;52.460;13.322;2023-06-24T08:14:46;3.17;;;2.97;;
20468;SDS011;10393;52.460;13.322;2023-06-24T08:16:27;3.03;;;2.88;;
20468;SDS011;10393;52.460;13.322;2023-06-24T08:18:08;2.90;;;2.55;;
20468;SDS011;10393;52.460;13.322;2023-06-24T08:19:49;3.22;;;2.92;;
20468;SDS011;10393;52.460;13.322;2023-06-24T08:21:31;2.88;;;2.63;;
20468;SDS011;10393;52.460;13.322;2023-06-24T08:23:12;2.42;;;2.33;;
20468;SDS011;10393;52.460;13.322;2023-06-24T08:24:53;3.33;;;2.67;;
20468;SDS011;10393;52.460;13.322;2023-06-24T08:26:34;2.83;;;2.60;;
20468;SDS011;10393;52.460;13.322;2023-06-24T08:28:15;2.42;;;2.33;;
20468;SDS011;10393;52.460;13.322;2023-06-24T08:29:57;2.97;;;2.78;;
20468;SDS011;10393;52.460;13.322;2023-06-24T08:31:38;3.80;;;2.65;;
20468;SDS011;10393;52.460;13.322;2023-06-24T08:33:19;3.05;;;2.85;;
20468;SDS011;10393;52.460;13.322;2023-06-24T08:35:00;4.72;;;3.00;;
20468;SDS011;10393;52.460;13.322;2023-06-24T08:36:41;3.75;;;2.40;;
20468;SDS011;10393;52.460;13.322;2023-06-24T08:38:22;2.78;;;2.15;;
20468;SDS011;10393;52.460;13.322;2023-06-24T08:40:04;3.95;;;2.70;;
20468;SDS011;10393;52.460;13.322;2023-06-24T08:41:46;10.88;;;2.58;;
20468;SDS011;10393;52.460;13.322;2023-06-24T08:43:27;3.42;;;2.33;;
20468;SDS011;10393;52.460;13.322;2023-06-24T08:45:09;2.53;;;2.40;;
20468;SDS011;10393;52.460;13.322;2023-06-24T08:46:50;2.72;;;2.53;;
20468;SDS011;10393;52.460;13.322;2023-06-24T08:48:31;2.45;;;2.30;;
20468;SDS011;10393;52.460;13.322;2023-06-24T08:50:19;2.65;;;2.55;;
20468;SDS011;10393;52.460;13.322;2023-06-24T08:52:08;2.90;;;2.70;;
20468;SDS011;10393;52.460;13.322;2023-06-24T08:53:49;2.40;;;2.13;;
20468;SDS011;10393;52.460;13.322;2023-06-24T08:55:31;5.57;;;2.50;;
20468;SDS011;10393;52.460;13.322;2023-06-24T08:57:13;6.53;;;3.30;;
20468;SDS011;10393;52.460;13.322;2023-06-24T08:58:55;2.65;;;2.55;;
20468;SDS011;10393;52.460;13.322;2023-06-24T09:00:36;5.80;;;2.90;;
20468;SDS011;10393;52.460;13.322;2023-06-24T09:02:17;7.18;;;3.13;;
20468;SDS011;10393;52.460;13.322;2023-06-24T09:03:58;5.32;;;2.65;;
20468;SDS011;10393;52.460;13.322;2023-06-24T09:05:40;2.67;;;2.58;;
20468;SDS011;10393;52.460;13.322;2023-06-24T09:07:27;3.50;;;2.70;;
20468;SDS011;10393;52.460;13.322;2023-06-24T09:09:18;8.00;;;4.53;;
20468;SDS011;10393;52.460;13.322;2023-06-24T09:10:59;6.15;;;2.50;;
20468;SDS011;10393;52.460;13.322;2023-06-24T09:12:40;3.13;;;2.92;;
20468;SDS011;10393;52.460;13.322;2023-06-24T09:14:22;2.60;;;2.40;;
20468;SDS011;10393;52.460;13.322;2023-06-24T09:16:12;4.25;;;2.85;;
20468;SDS011;10393;52.460;13.322;2023-06-24T09:17:54;3.08;;;2.33;;
20468;SDS011;10393;52.460;13.322;2023-06-24T09:19:35;5.43;;;2.95;;
20468;SDS011;10393;52.460;13.322;2023-06-24T09:21:26;11.77;;;7.18;;
20468;SDS011;10393;52.460;13.322;2023-06-24T09:23:10;2.63;;;2.42;;
20468;SDS011;10393;52.460;13.322;2023-06-24T09:24:51;2.53;;;2.20;;
20468;SDS011;10393;52.460;13.322;2023-06-24T09:26:32;2.47;;;2.28;;
20468;SDS011;10393;52.460;13.322;2023-06-24T09:28:13;4.18;;;2.70;;
20468;SDS011;10393;52.460;13.322;2023-06-24T09:29:54;2.75;;;2.45;;
20468;SDS011;10393;52.460;13.322;2023-06-24T09:31:39;2.20;;;1.98;;
20468;SDS011;10393;52.460;13.322;2023-06-24T09:33:26;3.10;;;2.78;;
20468;SDS011;10393;52.460;13.322;2023-06-24T09:35:09;2.28;;;2.08;;
20468;SDS011;10393;52.460;13.322;2023-06-24T09:36:51;5.45;;;1.77;;
20468;SDS011;10393;52.460;13.322;2023-06-24T09:38:36;4.45;;;2.38;;
20468;SDS011;10393;52.460;13.322;2023-06-24T09:40:17;2.13;;;1.92;;
20468;SDS011;10393;52.460;13.322;2023-06-24T09:41:59;4.10;;;1.70;;
20468;SDS011;10393;52.460;13.322;2023-06-24T09:43:41;2.78;;;1.90;;
20468;SDS011;10393;52.460;13.322;2023-06-24T09:45:26;3.10;;;1.92;;
20468;SDS011;10393;52.460;13.322;2023-06-24T09:47:07;1.92;;;1.80;;
20468;SDS011;10393;52.460;13.322;2023-06-24T09:48:48;9.13;;;2.88;;
20468;SDS011;10393;52.460;13.322;2023-06-24T09:50:29;2.78;;;1.90;;
20468;SDS011;10393;52.460;13.322;2023-06-24T09:52:11;5.15;;;1.98;;
20468;SDS011;10393;52.460;13.322;2023-06-24T09:53:56;11.70;;;1.73;;
20468;SDS011;10393;52.460;13.322;2023-06-24T09:55:37;3.45;;;1.42;;
20468;SDS011;10393;52.460;13.322;2023-06-24T09:57:25;1.15;;;0.93;;
20468;SDS011;10393;52.460;13.322;2023-06-24T09:59:08;1.85;;;1.60;;
20468;SDS011;10393;52.460;13.322;2023-06-24T10:00:50;1.60;;;1.45;;
20468;SDS011;10393;52.460;13.322;2023-06-24T10:02:31;3.35;;;1.80;;
20468;SDS011;10393;52.460;13.322;2023-06-24T10:04:17;3.17;;;1.63;;
20468;SDS011;10393;52.460;13.322;2023-06-24T10:05:59;1.63;;;1.50;;
20468;SDS011;10393;52.460;13.322;2023-06-24T10:07:42;1.60;;;1.50;;
20468;SDS011;10393;52.460;13.322;2023-06-24T10:09:24;2.53;;;1.50;;
20468;SDS011;10393;52.460;13.322;2023-06-24T10:11:05;2.88;;;1.90;;
20468;SDS011;10393;52.460;13.322;2023-06-24T10:12:47;2.22;;;1.98;;
20468;SDS011;10393;52.460;13.322;2023-06-24T10:14:28;2.65;;;2.00;;